Kewanee, IL (61443)

8:58 PM CDT on August 31, 2016 (GMT -0500)
Rockwell St. | | Change Station

Elev 858 ft 41.24 °N, 89.93 °W | Updated 8 seconds ago

Clear
Clear
66.7 °F
Feels Like 66.7 °F
N
2.2
Wind Variable Wind from North
Gusts 5.3 mph

Today
High -- | Low -- °F
--% Chance of Precip.
Yesterday
High -- | Low -- °F
Precip. -- in
Pressure 30.09 in
Visibility 10.0 miles
Clouds Clear
Dew Point 61 °F
Humidity 83%
Rainfall 0.56 in
Snow Depth Not available.
6:25 AM 7:33 PM
Waning Crescent, 0% visible
METAR KGBG 010135Z AUTO 01003KT 10SM CLR 18/17 A3009 RMK AO2 T01790165
Pressure 30.09 in
Visibility 10.0 miles
Clouds Clear
Dew Point 61 °F
Humidity 83%
Rainfall 0.56 in
Snow Depth Not available.
6:25 AM 7:33 PM
Waning Crescent, 0% visible
METAR KGBG 010135Z AUTO 01003KT 10SM CLR 18/17 A3009 RMK AO2 T01790165

10-Day Weather Forecast

Almanac

Astronomy

Aug. 31, 2016 Rise Set
Actual Time
Civil Twilight
Nautical Twilight
Astronomical Twilight
Moon
Length of Visible Light
Length of Day
Tomorrow will be .
, % of the Moon is Illuminated

Today's Extremes

State Highs State Lows

Community

WunderPhotos

Upload Photos

1,936,266 photos uploaded!

WunderBlog® & News

Nearby

Air Quality

  Air Quality AQ Index Pollutant
Not available.

Snow Depth

Station Depth Elevation

Earthquake Activity

City Distance Mag. Time & Date
Minimum magnitude displayed is 2.5.

Coastal Water Temperatures

Place Temperature

Stations

Nearby Weather Stations

Station Location Temp. Windchill Dew Point Humidity Wind Precip. Elev Updated Type
                   

Watches & Warnings

There are currently no watches in effect.